Krypton, Kentucky
Current Conditions -  °F | °C
As of 9:53 PM on Saturday 20 Dec 2014 (Local Time) from KJKL Reporting Station
Few Clouds Few Clouds  
Wind Chill: 30°   Ceiling: Unl
Heat Index: 30°   Visibility: 10mi
Dew Point: 23°   Wind: 3mph
Humidity: 75%   Direction: 30°NNE
Pressure: 30.25"   Gusts: NA
Location:  37.31°N, 83.34°W
Report Text: KJKL 210253Z AUTO 03003KT 10SM FEW045 M01/M05 A3025 RMK AO2 SLP256 T10111050 51006
Loading
Personal Weather Stations






























Interactive Weather Map New forecast layout! Learn more

10-Day Weather Forecast

Advertisements
Track Severe Weather on mobile